sensor_id;sensor_type;location;lat;lon;timestamp;pressure;altitude;pressure_sealevel;temperature;humidity
75594;BME280;64176;49.156;7.810;2023-12-04T00:01:12;99284.56;;;-4.68;100.00
75594;BME280;64176;49.156;7.810;2023-12-04T00:03:57;99269.22;;;-4.71;100.00
75594;BME280;64176;49.156;7.810;2023-12-04T00:06:41;99265.16;;;-4.69;100.00
75594;BME280;64176;49.156;7.810;2023-12-04T00:09:26;99268.06;;;-4.76;100.00
75594;BME280;64176;49.156;7.810;2023-12-04T00:12:11;99253.44;;;-4.68;100.00
75594;BME280;64176;49.156;7.810;2023-12-04T00:14:57;99254.78;;;-4.73;100.00
75594;BME280;64176;49.156;7.810;2023-12-04T00:17:44;99256.63;;;-4.71;100.00
75594;BME280;64176;49.156;7.810;2023-12-04T00:20:28;99253.91;;;-4.74;100.00
75594;BME280;64176;49.156;7.810;2023-12-04T00:23:12;99249.44;;;-4.78;100.00
75594;BME280;64176;49.156;7.810;2023-12-04T00:25:58;99243.06;;;-4.86;100.00
75594;BME280;64176;49.156;7.810;2023-12-04T00:28:45;99243.53;;;-4.79;100.00
75594;BME280;64176;49.156;7.810;2023-12-04T00:31:29;99235.97;;;-4.79;100.00
75594;BME280;64176;49.156;7.810;2023-12-04T00:34:13;99220.75;;;-4.80;100.00
75594;BME280;64176;49.156;7.810;2023-12-04T00:36:56;99216.56;;;-4.93;100.00
75594;BME280;64176;49.156;7.810;2023-12-04T00:39:43;99225.19;;;-4.89;100.00
75594;BME280;64176;49.156;7.810;2023-12-04T00:42:32;99222.88;;;-4.86;100.00
75594;BME280;64176;49.156;7.810;2023-12-04T00:45:16;99235.50;;;-4.86;100.00
75594;BME280;64176;49.156;7.810;2023-12-04T00:48:00;99222.56;;;-4.91;100.00
75594;BME280;64176;49.156;7.810;2023-12-04T00:50:44;99228.84;;;-5.10;100.00
75594;BME280;64176;49.156;7.810;2023-12-04T00:53:28;99225.47;;;-4.98;100.00
75594;BME280;64176;49.156;7.810;2023-12-04T00:56:14;99232.09;;;-4.87;100.00
75594;BME280;64176;49.156;7.810;2023-12-04T00:59:01;99225.78;;;-4.80;100.00
75594;BME280;64176;49.156;7.810;2023-12-04T01:01:45;99218.53;;;-4.75;100.00
75594;BME280;64176;49.156;7.810;2023-12-04T01:04:29;99228.63;;;-4.75;100.00
75594;BME280;64176;49.156;7.810;2023-12-04T01:07:14;99213.16;;;-4.93;100.00
75594;BME280;64176;49.156;7.810;2023-12-04T01:09:57;99213.16;;;-4.93;100.00
75594;BME280;64176;49.156;7.810;2023-12-04T01:12:44;99212.59;;;-4.89;100.00
75594;BME280;64176;49.156;7.810;2023-12-04T01:15:28;99199.78;;;-4.92;100.00
75594;BME280;64176;49.156;7.810;2023-12-04T01:18:14;99187.00;;;-4.82;100.00
75594;BME280;64176;49.156;7.810;2023-12-04T01:21:00;99189.44;;;-4.84;100.00
75594;BME280;64176;49.156;7.810;2023-12-04T01:23:46;99176.56;;;-4.88;100.00
75594;BME280;64176;49.156;7.810;2023-12-04T01:26:30;99175.00;;;-4.86;100.00
75594;BME280;64176;49.156;7.810;2023-12-04T01:29:14;99170.81;;;-4.99;100.00
75594;BME280;64176;49.156;7.810;2023-12-04T01:31:58;99158.41;;;-4.96;100.00
75594;BME280;64176;49.156;7.810;2023-12-04T01:34:42;99166.47;;;-4.88;100.00
75594;BME280;64176;49.156;7.810;2023-12-04T01:37:26;99152.97;;;-5.02;100.00
75594;BME280;64176;49.156;7.810;2023-12-04T01:40:11;99156.16;;;-5.04;100.00
75594;BME280;64176;49.156;7.810;2023-12-04T01:42:55;99160.06;;;-5.09;100.00
75594;BME280;64176;49.156;7.810;2023-12-04T01:45:41;99146.94;;;-5.30;100.00
75594;BME280;64176;49.156;7.810;2023-12-04T01:48:29;99157.97;;;-5.28;100.00
75594;BME280;64176;49.156;7.810;2023-12-04T01:51:16;99156.34;;;-5.15;100.00
75594;BME280;64176;49.156;7.810;2023-12-04T01:54:03;99152.28;;;-5.13;100.00
75594;BME280;64176;49.156;7.810;2023-12-04T01:56:49;99157.72;;;-5.20;100.00
75594;BME280;64176;49.156;7.810;2023-12-04T01:59:33;99148.03;;;-5.14;100.00
75594;BME280;64176;49.156;7.810;2023-12-04T02:02:20;99141.63;;;-5.22;100.00
75594;BME280;64176;49.156;7.810;2023-12-04T02:05:08;99145.03;;;-5.21;100.00
75594;BME280;64176;49.156;7.810;2023-12-04T02:07:52;99131.72;;;-5.19;100.00
75594;BME280;64176;49.156;7.810;2023-12-04T02:10:38;99130.97;;;-5.18;100.00
75594;BME280;64176;49.156;7.810;2023-12-04T02:13:25;99113.25;;;-5.19;100.00
75594;BME280;64176;49.156;7.810;2023-12-04T02:16:14;99120.69;;;-5.07;100.00
75594;BME280;64176;49.156;7.810;2023-12-04T02:19:00;99103.66;;;-5.11;100.00
75594;BME280;64176;49.156;7.810;2023-12-04T02:21:44;99103.19;;;-5.19;100.00
75594;BME280;64176;49.156;7.810;2023-12-04T02:24:28;99098.91;;;-5.20;100.00
75594;BME280;64176;49.156;7.810;2023-12-04T02:27:25;99087.94;;;-5.34;100.00
75594;BME280;64176;49.156;7.810;2023-12-04T02:30:18;99099.56;;;-5.36;100.00
75594;BME280;64176;49.156;7.810;2023-12-04T02:33:07;99088.94;;;-5.32;100.00
75594;BME280;64176;49.156;7.810;2023-12-04T02:35:55;99070.03;;;-5.25;100.00
75594;BME280;64176;49.156;7.810;2023-12-04T02:38:40;99057.91;;;-5.18;100.00
75594;BME280;64176;49.156;7.810;2023-12-04T02:41:27;99070.22;;;-5.22;100.00
75594;BME280;64176;49.156;7.810;2023-12-04T02:44:11;99056.78;;;-5.23;100.00
75594;BME280;64176;49.156;7.810;2023-12-04T02:46:57;99059.47;;;-5.33;100.00
75594;BME280;64176;49.156;7.810;2023-12-04T02:49:44;99049.56;;;-5.30;100.00
75594;BME280;64176;49.156;7.810;2023-12-04T02:52:30;99050.63;;;-5.39;100.00
75594;BME280;64176;49.156;7.810;2023-12-04T02:55:14;99049.13;;;-5.24;100.00
75594;BME280;64176;49.156;7.810;2023-12-04T02:58:01;99054.72;;;-5.28;100.00
75594;BME280;64176;49.156;7.810;2023-12-04T03:00:45;99042.91;;;-5.29;100.00
75594;BME280;64176;49.156;7.810;2023-12-04T03:03:29;99045.81;;;-5.36;100.00
75594;BME280;64176;49.156;7.810;2023-12-04T03:06:13;99051.25;;;-5.30;100.00
75594;BME280;64176;49.156;7.810;2023-12-04T03:08:59;99044.38;;;-5.33;100.00
75594;BME280;64176;49.156;7.810;2023-12-04T03:11:43;99029.53;;;-5.28;100.00
75594;BME280;64176;49.156;7.810;2023-12-04T03:14:27;99041.66;;;-5.09;100.00
75594;BME280;64176;49.156;7.810;2023-12-04T03:17:11;99039.22;;;-5.34;100.00
75594;BME280;64176;49.156;7.810;2023-12-04T03:19:58;99043.97;;;-5.26;100.00
75594;BME280;64176;49.156;7.810;2023-12-04T03:22:44;99043.78;;;-5.16;100.00
75594;BME280;64176;49.156;7.810;2023-12-04T03:25:28;99060.53;;;-5.16;100.00
75594;BME280;64176;49.156;7.810;2023-12-04T03:28:14;99061.97;;;-5.06;100.00
75594;BME280;64176;49.156;7.810;2023-12-04T03:30:59;99054.81;;;-5.14;100.00
75594;BME280;64176;49.156;7.810;2023-12-04T03:33:43;99058.00;;;-5.29;100.00
75594;BME280;64176;49.156;7.810;2023-12-04T03:36:29;99060.84;;;-5.11;100.00
75594;BME280;64176;49.156;7.810;2023-12-04T03:39:13;99061.13;;;-5.20;100.00
75594;BME280;64176;49.156;7.810;2023-12-04T03:41:57;99056.28;;;-5.30;100.00
75594;BME280;64176;49.156;7.810;2023-12-04T03:44:44;99046.19;;;-5.17;100.00
75594;BME280;64176;49.156;7.810;2023-12-04T03:47:28;99046.78;;;-5.21;100.00
75594;BME280;64176;49.156;7.810;2023-12-04T03:50:14;99048.13;;;-5.13;100.00
75594;BME280;64176;49.156;7.810;2023-12-04T03:52:59;99036.91;;;-5.31;100.00
75594;BME280;64176;49.156;7.810;2023-12-04T03:55:48;99034.56;;;-5.15;100.00
75594;BME280;64176;49.156;7.810;2023-12-04T03:58:32;99024.31;;;-5.31;100.00
75594;BME280;64176;49.156;7.810;2023-12-04T04:01:17;99030.97;;;-5.19;100.00
75594;BME280;64176;49.156;7.810;2023-12-04T04:04:01;99040.19;;;-5.06;100.00
75594;BME280;64176;49.156;7.810;2023-12-04T04:06:45;99049.38;;;-4.93;100.00
75594;BME280;64176;49.156;7.810;2023-12-04T04:09:31;99032.63;;;-5.06;100.00
75594;BME280;64176;49.156;7.810;2023-12-04T04:12:17;99045.88;;;-4.95;100.00
75594;BME280;64176;49.156;7.810;2023-12-04T04:15:02;99034.38;;;-4.92;100.00
75594;BME280;64176;49.156;7.810;2023-12-04T04:17:48;99051.81;;;-4.95;100.00
75594;BME280;64176;49.156;7.810;2023-12-04T04:20:32;99025.06;;;-5.06;100.00
75594;BME280;64176;49.156;7.810;2023-12-04T04:23:16;99041.50;;;-4.85;100.00
75594;BME280;64176;49.156;7.810;2023-12-04T04:26:03;99040.94;;;-4.81;100.00
75594;BME280;64176;49.156;7.810;2023-12-04T04:28:52;99047.03;;;-4.77;100.00
75594;BME280;64176;49.156;7.810;2023-12-04T04:31:36;99041.91;;;-4.79;100.00
75594;BME280;64176;49.156;7.810;2023-12-04T04:34:21;99035.69;;;-4.84;100.00
75594;BME280;64176;49.156;7.810;2023-12-04T04:37:08;99045.41;;;-4.90;100.00
75594;BME280;64176;49.156;7.810;2023-12-04T04:39:54;99037.53;;;-4.81;100.00
75594;BME280;64176;49.156;7.810;2023-12-04T04:42:38;99026.00;;;-4.78;100.00
75594;BME280;64176;49.156;7.810;2023-12-04T04:45:27;99019.59;;;-4.72;100.00
75594;BME280;64176;49.156;7.810;2023-12-04T04:48:11;99016.72;;;-4.92;100.00
75594;BME280;64176;49.156;7.810;2023-12-04T04:50:55;99004.81;;;-4.94;100.00
75594;BME280;64176;49.156;7.810;2023-12-04T04:53:41;99004.69;;;-4.83;100.00
75594;BME280;64176;49.156;7.810;2023-12-04T04:56:28;98997.59;;;-4.75;100.00
75594;BME280;64176;49.156;7.810;2023-12-04T04:59:13;98993.13;;;-4.66;100.00
75594;BME280;64176;49.156;7.810;2023-12-04T05:01:59;98981.75;;;-4.59;100.00
75594;BME280;64176;49.156;7.810;2023-12-04T05:04:46;98980.97;;;-4.58;100.00
75594;BME280;64176;49.156;7.810;2023-12-04T05:07:30;98970.94;;;-4.44;100.00
75594;BME280;64176;49.156;7.810;2023-12-04T05:10:16;98971.50;;;-4.48;100.00
75594;BME280;64176;49.156;7.810;2023-12-04T05:13:03;98953.56;;;-4.67;100.00
75594;BME280;64176;49.156;7.810;2023-12-04T05:15:47;98946.78;;;-4.68;100.00
75594;BME280;64176;49.156;7.810;2023-12-04T05:18:34;98960.47;;;-4.50;100.00
75594;BME280;64176;49.156;7.810;2023-12-04T05:21:20;98948.63;;;-4.51;100.00
75594;BME280;64176;49.156;7.810;2023-12-04T05:24:04;98948.31;;;-4.42;100.00
75594;BME280;64176;49.156;7.810;2023-12-04T05:26:48;98933.69;;;-4.48;100.00
75594;BME280;64176;49.156;7.810;2023-12-04T05:29:34;98939.06;;;-4.42;100.00
75594;BME280;64176;49.156;7.810;2023-12-04T05:32:18;98935.28;;;-4.35;100.00
75594;BME280;64176;49.156;7.810;2023-12-04T05:35:03;98931.00;;;-4.36;100.00
75594;BME280;64176;49.156;7.810;2023-12-04T05:37:47;98923.97;;;-4.27;100.00
75594;BME280;64176;49.156;7.810;2023-12-04T05:40:32;98914.22;;;-4.35;100.00
75594;BME280;64176;49.156;7.810;2023-12-04T05:43:18;98911.91;;;-4.32;100.00
75594;BME280;64176;49.156;7.810;2023-12-04T05:46:03;98902.50;;;-4.35;100.00
75594;BME280;64176;49.156;7.810;2023-12-04T05:48:48;98914.56;;;-4.29;100.00
75594;BME280;64176;49.156;7.810;2023-12-04T05:51:34;98907.09;;;-4.28;100.00
75594;BME280;64176;49.156;7.810;2023-12-04T05:54:20;98903.00;;;-4.26;100.00
75594;BME280;64176;49.156;7.810;2023-12-04T05:57:09;98896.16;;;-4.43;100.00
75594;BME280;64176;49.156;7.810;2023-12-04T05:59:56;98896.75;;;-4.32;100.00
75594;BME280;64176;49.156;7.810;2023-12-04T06:02:43;98891.53;;;-4.35;100.00
75594;BME280;64176;49.156;7.810;2023-12-04T06:05:27;98890.13;;;-4.30;100.00
75594;BME280;64176;49.156;7.810;2023-12-04T06:08:12;98889.28;;;-4.46;100.00
75594;BME280;64176;49.156;7.810;2023-12-04T06:10:59;98885.84;;;-4.61;100.00
75594;BME280;64176;49.156;7.810;2023-12-04T06:13:51;98872.69;;;-4.42;100.00
75594;BME280;64176;49.156;7.810;2023-12-04T06:16:35;98868.66;;;-4.24;100.00
75594;BME280;64176;49.156;7.810;2023-12-04T06:19:19;98857.88;;;-4.21;100.00
75594;BME280;64176;49.156;7.810;2023-12-04T06:22:05;98863.03;;;-4.20;100.00
75594;BME280;64176;49.156;7.810;2023-12-04T06:24:49;98856.84;;;-4.25;100.00
75594;BME280;64176;49.156;7.810;2023-12-04T06:27:34;98838.47;;;-4.37;100.00
75594;BME280;64176;49.156;7.810;2023-12-04T06:30:18;98840.03;;;-4.39;100.00
75594;BME280;64176;49.156;7.810;2023-12-04T06:33:07;98845.19;;;-4.37;100.00
75594;BME280;64176;49.156;7.810;2023-12-04T06:35:54;98847.25;;;-4.16;100.00
75594;BME280;64176;49.156;7.810;2023-12-04T06:38:45;98847.16;;;-4.17;100.00
75594;BME280;64176;49.156;7.810;2023-12-04T06:41:35;98835.41;;;-4.17;100.00
75594;BME280;64176;49.156;7.810;2023-12-04T06:44:19;98841.53;;;-4.13;100.00
75594;BME280;64176;49.156;7.810;2023-12-04T06:47:08;98843.69;;;-4.05;100.00
75594;BME280;64176;49.156;7.810;2023-12-04T06:49:57;98851.44;;;-4.01;100.00
75594;BME280;64176;49.156;7.810;2023-12-04T06:52:43;98843.69;;;-4.05;100.00
75594;BME280;64176;49.156;7.810;2023-12-04T06:55:30;98848.22;;;-4.14;100.00
75594;BME280;64176;49.156;7.810;2023-12-04T06:58:16;98834.53;;;-4.03;100.00
75594;BME280;64176;49.156;7.810;2023-12-04T07:01:05;98835.75;;;-3.96;100.00
75594;BME280;64176;49.156;7.810;2023-12-04T07:03:50;98840.00;;;-3.95;100.00
75594;BME280;64176;49.156;7.810;2023-12-04T07:06:37;98835.50;;;-4.00;100.00
75594;BME280;64176;49.156;7.810;2023-12-04T07:09:21;98842.53;;;-3.95;100.00
75594;BME280;64176;49.156;7.810;2023-12-04T07:12:09;98843.59;;;-4.06;100.00
75594;BME280;64176;49.156;7.810;2023-12-04T07:14:53;98857.06;;;-4.06;100.00
75594;BME280;64176;49.156;7.810;2023-12-04T07:17:38;98857.56;;;-3.96;100.00
75594;BME280;64176;49.156;7.810;2023-12-04T07:20:23;98854.28;;;-3.95;100.00
75594;BME280;64176;49.156;7.810;2023-12-04T07:23:07;98861.06;;;-3.94;100.00
75594;BME280;64176;49.156;7.810;2023-12-04T07:25:52;98848.13;;;-4.00;100.00
75594;BME280;64176;49.156;7.810;2023-12-04T07:28:36;98842.09;;;-3.88;100.00
75594;BME280;64176;49.156;7.810;2023-12-04T07:31:20;98840.19;;;-3.92;100.00
75594;BME280;64176;49.156;7.810;2023-12-04T07:34:04;98832.88;;;-3.87;100.00
75594;BME280;64176;49.156;7.810;2023-12-04T07:36:48;98838.94;;;-3.84;100.00
75594;BME280;64176;49.156;7.810;2023-12-04T07:39:33;98836.75;;;-3.78;100.00
75594;BME280;64176;49.156;7.810;2023-12-04T07:42:17;98832.03;;;-3.72;100.00
75594;BME280;64176;49.156;7.810;2023-12-04T07:45:03;98830.63;;;-3.67;100.00
75594;BME280;64176;49.156;7.810;2023-12-04T07:47:50;98822.63;;;-3.74;100.00
75594;BME280;64176;49.156;7.810;2023-12-04T07:50:34;98833.97;;;-3.82;100.00
75594;BME280;64176;49.156;7.810;2023-12-04T07:53:21;98826.50;;;-3.81;100.00
75594;BME280;64176;49.156;7.810;2023-12-04T07:56:07;98833.94;;;-3.68;100.00
75594;BME280;64176;49.156;7.810;2023-12-04T07:58:51;98830.97;;;-3.75;100.00
75594;BME280;64176;49.156;7.810;2023-12-04T08:01:35;98810.88;;;-3.74;100.00
75594;BME280;64176;49.156;7.810;2023-12-04T08:04:24;98811.31;;;-3.66;100.00
75594;BME280;64176;49.156;7.810;2023-12-04T08:07:13;98805.81;;;-3.74;100.00
75594;BME280;64176;49.156;7.810;2023-12-04T08:10:00;98806.19;;;-3.51;100.00
75594;BME280;64176;49.156;7.810;2023-12-04T08:12:45;98802.94;;;-3.65;100.00
75594;BME280;64176;49.156;7.810;2023-12-04T08:15:30;98805.56;;;-3.47;100.00
75594;BME280;64176;49.156;7.810;2023-12-04T08:18:16;98789.84;;;-3.42;100.00
75594;BME280;64176;49.156;7.810;2023-12-04T08:21:03;98795.78;;;-3.25;100.00
75594;BME280;64176;49.156;7.810;2023-12-04T08:23:47;98775.66;;;-3.23;100.00
75594;BME280;64176;49.156;7.810;2023-12-04T08:26:34;98785.66;;;-3.09;100.00
75594;BME280;64176;49.156;7.810;2023-12-04T08:29:20;98784.09;;;-3.07;100.00
75594;BME280;64176;49.156;7.810;2023-12-04T08:32:04;98782.75;;;-3.00;100.00
75594;BME280;64176;49.156;7.810;2023-12-04T08:34:51;98781.78;;;-2.86;100.00
75594;BME280;64176;49.156;7.810;2023-12-04T08:37:37;98775.13;;;-2.84;100.00
75594;BME280;64176;49.156;7.810;2023-12-04T08:40:21;98779.31;;;-2.68;100.00
75594;BME280;64176;49.156;7.810;2023-12-04T08:43:10;98782.28;;;-2.59;100.00
75594;BME280;64176;49.156;7.810;2023-12-04T08:45:54;98781.66;;;-2.55;100.00
75594;BME280;64176;49.156;7.810;2023-12-04T08:48:40;98794.50;;;-2.50;100.00
75594;BME280;64176;49.156;7.810;2023-12-04T08:51:27;98779.63;;;-2.44;100.00
75594;BME280;64176;49.156;7.810;2023-12-04T08:54:10;98800.25;;;-2.37;100.00
75594;BME280;64176;49.156;7.810;2023-12-04T08:56:57;98797.19;;;-2.30;100.00
75594;BME280;64176;49.156;7.810;2023-12-04T08:59:43;98801.63;;;-2.26;100.00
75594;BME280;64176;49.156;7.810;2023-12-04T09:02:30;98790.47;;;-2.29;100.00
75594;BME280;64176;49.156;7.810;2023-12-04T09:05:22;98797.56;;;-2.40;100.00
75594;BME280;64176;49.156;7.810;2023-12-04T09:08:06;98797.06;;;-2.33;100.00
75594;BME280;64176;49.156;7.810;2023-12-04T09:10:51;98808.59;;;-2.22;100.00
75594;BME280;64176;49.156;7.810;2023-12-04T09:13:38;98800.91;;;-2.23;100.00
75594;BME280;64176;49.156;7.810;2023-12-04T09:16:25;98790.47;;;-2.29;100.00
75594;BME280;64176;49.156;7.810;2023-12-04T09:19:09;98803.53;;;-2.22;100.00
75594;BME280;64176;49.156;7.810;2023-12-04T09:21:53;98806.97;;;-2.20;100.00
75594;BME280;64176;49.156;7.810;2023-12-04T09:24:39;98800.91;;;-2.05;100.00
75594;BME280;64176;49.156;7.810;2023-12-04T09:27:23;98799.16;;;-2.06;100.00
75594;BME280;64176;49.156;7.810;2023-12-04T09:30:12;98794.09;;;-2.06;100.00
75594;BME280;64176;49.156;7.810;2023-12-04T09:32:59;98782.97;;;-1.92;100.00
75594;BME280;64176;49.156;7.810;2023-12-04T09:35:42;98792.44;;;-1.88;100.00
75594;BME280;64176;49.156;7.810;2023-12-04T09:38:29;98788.59;;;-1.80;100.00
75594;BME280;64176;49.156;7.810;2023-12-04T09:41:15;98789.41;;;-1.81;100.00
75594;BME280;64176;49.156;7.810;2023-12-04T09:43:59;98781.94;;;-1.78;100.00
75594;BME280;64176;49.156;7.810;2023-12-04T09:46:46;98774.34;;;-1.78;100.00
75594;BME280;64176;49.156;7.810;2023-12-04T09:49:36;98773.28;;;-1.64;100.00
75594;BME280;64176;49.156;7.810;2023-12-04T09:52:20;98779.41;;;-1.78;100.00
75594;BME280;64176;49.156;7.810;2023-12-04T09:55:05;98779.69;;;-1.72;100.00
75594;BME280;64176;49.156;7.810;2023-12-04T09:57:52;98768.22;;;-1.64;100.00
75594;BME280;64176;49.156;7.810;2023-12-04T10:00:37;98766.16;;;-1.72;100.00
75594;BME280;64176;49.156;7.810;2023-12-04T10:03:21;98759.19;;;-1.76;100.00
75594;BME280;64176;49.156;7.810;2023-12-04T10:06:07;98756.16;;;-1.69;100.00
75594;BME280;64176;49.156;7.810;2023-12-04T10:08:55;98746.91;;;-1.69;100.00
75594;BME280;64176;49.156;7.810;2023-12-04T10:11:42;98748.63;;;-1.68;100.00
75594;BME280;64176;49.156;7.810;2023-12-04T10:14:26;98733.06;;;-1.75;100.00
75594;BME280;64176;49.156;7.810;2023-12-04T10:17:16;98733.06;;;-1.75;100.00
75594;BME280;64176;49.156;7.810;2023-12-04T10:20:19;98723.88;;;-1.73;100.00
75594;BME280;64176;49.156;7.810;2023-12-04T10:23:05;98718.03;;;-1.72;100.00
75594;BME280;64176;49.156;7.810;2023-12-04T10:25:49;98719.03;;;-1.69;100.00
75594;BME280;64176;49.156;7.810;2023-12-04T10:28:37;98712.38;;;-1.67;100.00
75594;BME280;64176;49.156;7.810;2023-12-04T10:31:23;98707.50;;;-1.62;100.00
75594;BME280;64176;49.156;7.810;2023-12-04T10:34:07;98701.56;;;-1.63;100.00
75594;BME280;64176;49.156;7.810;2023-12-04T10:36:55;98691.97;;;-1.70;100.00
75594;BME280;64176;49.156;7.810;2023-12-04T10:39:46;98687.38;;;-1.59;100.00
75594;BME280;64176;49.156;7.810;2023-12-04T10:42:31;98683.31;;;-1.56;100.00
75594;BME280;64176;49.156;7.810;2023-12-04T10:45:17;98676.63;;;-1.54;100.00
75594;BME280;64176;49.156;7.810;2023-12-04T10:48:06;98666.63;;;-1.51;100.00
75594;BME280;64176;49.156;7.810;2023-12-04T10:50:50;98655.84;;;-1.47;100.00
75594;BME280;64176;49.156;7.810;2023-12-04T10:53:36;98656.16;;;-1.39;100.00
75594;BME280;64176;49.156;7.810;2023-12-04T10:56:35;98644.97;;;-1.44;100.00
75594;BME280;64176;49.156;7.810;2023-12-04T10:59:26;98636.03;;;-1.36;100.00
75594;BME280;64176;49.156;7.810;2023-12-04T11:02:18;98635.28;;;-1.33;100.00
75594;BME280;64176;49.156;7.810;2023-12-04T11:05:07;98632.13;;;-1.28;100.00
75594;BME280;64176;49.156;7.810;2023-12-04T11:08:01;98621.78;;;-1.32;100.00
75594;BME280;64176;49.156;7.810;2023-12-04T11:11:04;98614.38;;;-1.28;100.00
75594;BME280;64176;49.156;7.810;2023-12-04T11:13:54;98608.72;;;-1.22;100.00
75594;BME280;64176;49.156;7.810;2023-12-04T11:16:54;98589.69;;;-1.13;100.00
75594;BME280;64176;49.156;7.810;2023-12-04T11:19:59;98574.56;;;-1.10;100.00
75594;BME280;64176;49.156;7.810;2023-12-04T11:22:51;98570.34;;;-1.09;100.00
75594;BME280;64176;49.156;7.810;2023-12-04T11:25:35;98582.22;;;-1.08;100.00
75594;BME280;64176;49.156;7.810;2023-12-04T11:28:20;98574.09;;;-1.22;100.00
75594;BME280;64176;49.156;7.810;2023-12-04T11:31:06;98572.53;;;-1.18;100.00
75594;BME280;64176;49.156;7.810;2023-12-04T11:33:50;98569.19;;;-1.17;100.00
75594;BME280;64176;49.156;7.810;2023-12-04T11:36:36;98559.63;;;-1.03;100.00
75594;BME280;64176;49.156;7.810;2023-12-04T11:39:21;98545.50;;;-0.97;100.00
75594;BME280;64176;49.156;7.810;2023-12-04T11:42:09;98547.16;;;-0.97;100.00
75594;BME280;64176;49.156;7.810;2023-12-04T11:44:58;98542.41;;;-0.90;100.00
75594;BME280;64176;49.156;7.810;2023-12-04T11:50:38;98538.47;;;-0.82;100.00
75594;BME280;64176;49.156;7.810;2023-12-04T11:53:22;98534.34;;;-0.80;100.00
75594;BME280;64176;49.156;7.810;2023-12-04T11:56:10;98540.97;;;-0.83;100.00
75594;BME280;64176;49.156;7.810;2023-12-04T11:59:05;98531.75;;;-0.81;100.00
75594;BME280;64176;49.156;7.810;2023-12-04T12:01:58;98525.53;;;-0.67;100.00
75594;BME280;64176;49.156;7.810;2023-12-04T12:04:42;98522.59;;;-0.55;100.00
75594;BME280;64176;49.156;7.810;2023-12-04T12:07:28;98508.09;;;-0.58;100.00
75594;BME280;64176;49.156;7.810;2023-12-04T12:10:18;98493.75;;;-0.80;100.00
75594;BME280;64176;49.156;7.810;2023-12-04T12:13:05;98495.75;;;-0.71;100.00
75594;BME280;64176;49.156;7.810;2023-12-04T12:15:50;98492.38;;;-0.71;100.00
75594;BME280;64176;49.156;7.810;2023-12-04T12:18:35;98488.78;;;-0.77;100.00
75594;BME280;64176;49.156;7.810;2023-12-04T12:21:19;98481.22;;;-0.75;100.00
75594;BME280;64176;49.156;7.810;2023-12-04T12:24:06;98475.00;;;-0.83;100.00
75594;BME280;64176;49.156;7.810;2023-12-04T12:26:53;98477.56;;;-0.83;100.00
75594;BME280;64176;49.156;7.810;2023-12-04T12:29:40;98476.81;;;-0.81;100.00
75594;BME280;64176;49.156;7.810;2023-12-04T12:32:24;98475.81;;;-0.84;100.00
75594;BME280;64176;49.156;7.810;2023-12-04T12:35:10;98466.41;;;-0.87;100.00
75594;BME280;64176;49.156;7.810;2023-12-04T12:37:55;98459.59;;;-0.89;100.00
75594;BME280;64176;49.156;7.810;2023-12-04T12:40:40;98462.28;;;-0.85;100.00
75594;BME280;64176;49.156;7.810;2023-12-04T12:43:27;98456.34;;;-0.85;100.00
75594;BME280;64176;49.156;7.810;2023-12-04T12:46:17;98446.94;;;-0.88;100.00
75594;BME280;64176;49.156;7.810;2023-12-04T12:49:01;98425.78;;;-0.88;100.00
75594;BME280;64176;49.156;7.810;2023-12-04T12:51:47;98438.69;;;-0.82;100.00
75594;BME280;64176;49.156;7.810;2023-12-04T12:54:32;98426.66;;;-0.88;100.00
75594;BME280;64176;49.156;7.810;2023-12-04T12:57:19;98423.78;;;-0.97;100.00
75594;BME280;64176;49.156;7.810;2023-12-04T13:00:03;98432.44;;;-0.92;100.00
75594;BME280;64176;49.156;7.810;2023-12-04T13:02:52;98419.03;;;-0.88;100.00
75594;BME280;64176;49.156;7.810;2023-12-04T13:05:36;98415.63;;;-0.88;100.00
75594;BME280;64176;49.156;7.810;2023-12-04T13:08:20;98419.63;;;-0.95;100.00
75594;BME280;64176;49.156;7.810;2023-12-04T13:11:04;98396.06;;;-0.92;100.00
75594;BME280;64176;49.156;7.810;2023-12-04T13:13:48;98390.66;;;-1.01;100.00
75594;BME280;64176;49.156;7.810;2023-12-04T13:16:32;98390.75;;;-0.98;100.00
75594;BME280;64176;49.156;7.810;2023-12-04T13:19:16;98392.53;;;-0.96;100.00
75594;BME280;64176;49.156;7.810;2023-12-04T13:22:03;98378.94;;;-0.98;100.00
75594;BME280;64176;49.156;7.810;2023-12-04T13:24:48;98380.91;;;-0.91;100.00
75594;BME280;64176;49.156;7.810;2023-12-04T13:27:35;98370.66;;;-0.94;100.00
75594;BME280;64176;49.156;7.810;2023-12-04T13:30:22;98358.34;;;-0.83;100.00
75594;BME280;64176;49.156;7.810;2023-12-04T13:33:06;98353.44;;;-0.79;100.00
75594;BME280;64176;49.156;7.810;2023-12-04T13:35:52;98348.31;;;-0.80;100.00
75594;BME280;64176;49.156;7.810;2023-12-04T13:38:41;98339.03;;;-0.80;100.00
75594;BME280;64176;49.156;7.810;2023-12-04T13:41:25;98328.41;;;-0.69;100.00
75594;BME280;64176;49.156;7.810;2023-12-04T13:44:28;98332.00;;;-0.63;100.00
75594;BME280;64176;49.156;7.810;2023-12-04T13:47:16;98316.72;;;-0.64;100.00
75594;BME280;64176;49.156;7.810;2023-12-04T13:50:00;98315.97;;;-0.62;100.00
75594;BME280;64176;49.156;7.810;2023-12-04T13:52:45;98310.13;;;-0.59;100.00
75594;BME280;64176;49.156;7.810;2023-12-04T13:55:37;98296.88;;;-0.51;100.00
75594;BME280;64176;49.156;7.810;2023-12-04T13:58:41;98294.59;;;-0.43;100.00
75594;BME280;64176;49.156;7.810;2023-12-04T14:01:28;98292.69;;;-0.50;100.00
75594;BME280;64176;49.156;7.810;2023-12-04T14:04:13;98285.25;;;-0.44;100.00
75594;BME280;64176;49.156;7.810;2023-12-04T14:06:57;98277.00;;;-0.39;100.00
75594;BME280;64176;49.156;7.810;2023-12-04T14:09:41;98273.28;;;-0.48;100.00
75594;BME280;64176;49.156;7.810;2023-12-04T14:12:31;98270.19;;;-0.40;100.00
75594;BME280;64176;49.156;7.810;2023-12-04T14:15:15;98248.91;;;-0.43;100.00
75594;BME280;64176;49.156;7.810;2023-12-04T14:17:59;98263.88;;;-0.25;100.00
75594;BME280;64176;49.156;7.810;2023-12-04T14:20:43;98254.66;;;-0.22;100.00
75594;BME280;64176;49.156;7.810;2023-12-04T14:23:27;98253.00;;;-0.21;100.00
75594;BME280;64176;49.156;7.810;2023-12-04T14:26:13;98243.56;;;-0.25;100.00
75594;BME280;64176;49.156;7.810;2023-12-04T14:29:02;98244.66;;;-0.17;100.00
75594;BME280;64176;49.156;7.810;2023-12-04T14:31:47;98241.25;;;-0.18;100.00